createdAt,value
2019-01-16T00:00:32.133Z,22.62
2019-01-16T00:03:12.911Z,20.17
2019-01-16T00:06:00.893Z,23.38
2019-01-16T00:08:35.510Z,22.32
2019-01-16T00:11:13.471Z,20.82
2019-01-16T00:13:48.325Z,18.32
2019-01-16T00:16:20.084Z,18.73
2019-01-16T00:19:00.878Z,18.25
2019-01-16T00:21:32.632Z,19.32
2019-01-16T00:24:22.342Z,19.67
2019-01-16T00:27:10.240Z,19.27
2019-01-16T00:29:50.967Z,16.55
2019-01-16T00:32:49.682Z,16.93
2019-01-16T00:35:21.414Z,17.42
2019-01-16T00:38:04.806Z,17.15
2019-01-16T00:40:36.526Z,15.13
2019-01-16T00:43:13.878Z,18.37
2019-01-16T00:46:01.791Z,16.75
2019-01-16T00:48:48.765Z,15.53
2019-01-16T00:51:26.474Z,14.73
2019-01-16T00:54:01.126Z,13.83
2019-01-16T00:56:32.869Z,13.58
2019-01-16T00:59:04.666Z,13.55
2019-01-16T01:01:45.320Z,14.63
2019-01-16T01:04:19.982Z,14.55
2019-01-16T01:06:57.642Z,12.98
2019-01-16T01:09:29.390Z,13.08
2019-01-16T01:12:06.929Z,14.23
2019-01-16T01:14:41.054Z,12.47
2019-01-16T01:17:29.194Z,15.00
2019-01-16T01:20:03.871Z,14.68
2019-01-16T01:22:44.574Z,14.65
2019-01-16T01:25:16.318Z,16.67
2019-01-16T01:28:04.499Z,15.63
2019-01-16T01:30:36.247Z,13.28
2019-01-16T01:33:23.216Z,14.00
2019-01-16T01:35:57.506Z,18.73
2019-01-16T01:38:44.336Z,14.03
2019-01-16T01:41:34.060Z,16.25
2019-01-16T01:44:08.395Z,17.23
2019-01-16T01:46:40.149Z,16.97
2019-01-16T01:49:30.181Z,20.05
2019-01-16T01:52:18.049Z,18.40
2019-01-16T01:54:55.585Z,20.57
2019-01-16T01:57:27.402Z,19.70
2019-01-16T02:00:08.385Z,17.67
2019-01-16T02:02:40.114Z,19.02
2019-01-16T02:05:14.933Z,21.07
2019-01-16T02:08:02.836Z,18.00
2019-01-16T02:10:40.298Z,17.12
2019-01-16T02:13:30.329Z,16.45
2019-01-16T02:16:03.050Z,16.30
2019-01-16T02:18:50.869Z,19.52
2019-01-16T02:21:31.786Z,17.37
2019-01-16T02:24:06.240Z,18.30
2019-01-16T02:26:53.012Z,15.83
2019-01-16T02:29:33.974Z,17.75
2019-01-16T02:32:05.717Z,17.48
2019-01-16T02:34:53.822Z,17.50
2019-01-16T02:37:34.698Z,21.65
2019-01-16T02:40:24.946Z,19.12
2019-01-16T02:42:59.497Z,21.82
2019-01-16T02:45:43.210Z,20.72
2019-01-16T02:48:29.982Z,22.48
2019-01-16T02:51:01.730Z,23.57
2019-01-16T02:53:33.466Z,27.40
2019-01-16T02:56:05.229Z,27.35
2019-01-16T02:58:39.970Z,29.50
2019-01-16T03:01:28.017Z,26.87
2019-01-16T03:03:59.738Z,26.50
2019-01-16T03:06:34.437Z,30.75
2019-01-16T03:09:14.730Z,26.90
2019-01-16T03:11:46.474Z,31.35
2019-01-16T03:14:33.290Z,28.87
2019-01-16T03:17:05.044Z,30.10
2019-01-16T03:19:36.775Z,37.83
2019-01-16T03:22:11.198Z,36.50
2019-01-16T03:24:51.651Z,33.13
2019-01-16T03:27:29.385Z,40.92
2019-01-16T03:30:04.031Z,39.38
2019-01-16T03:32:51.851Z,41.10
2019-01-16T03:35:38.794Z,42.33
2019-01-16T03:38:10.538Z,42.62
2019-01-16T03:40:58.422Z,45.67
2019-01-16T03:43:33.108Z,45.10
2019-01-16T03:46:04.836Z,39.18
2019-01-16T03:48:39.410Z,45.15
2019-01-16T03:51:20.137Z,43.63
2019-01-16T03:53:51.886Z,41.90
2019-01-16T03:56:39.710Z,43.20
2019-01-16T03:59:11.440Z,45.58
2019-01-16T04:01:48.867Z,51.02
2019-01-16T04:04:35.611Z,45.88
2019-01-16T04:07:13.246Z,44.27
2019-01-16T04:10:01.321Z,44.70
2019-01-16T04:12:36.225Z,45.70
2019-01-16T04:15:24.181Z,43.25
2019-01-16T04:17:55.930Z,43.23
2019-01-16T04:20:36.385Z,49.03
2019-01-16T04:23:14.101Z,48.00
2019-01-16T04:26:01.853Z,44.23
2019-01-16T04:34:12.392Z,46.63
2019-01-16T04:36:50.106Z,47.67
2019-01-16T04:39:21.842Z,43.02
2019-01-16T04:41:59.664Z,50.92
2019-01-16T04:44:31.425Z,44.80
2019-01-16T04:47:03.149Z,48.90
2019-01-16T04:49:35.862Z,45.58
2019-01-16T04:52:07.579Z,46.08
2019-01-16T04:54:42.025Z,42.55
2019-01-16T04:57:13.837Z,42.53
2019-01-16T04:59:54.613Z,43.58
2019-01-16T05:02:38.410Z,43.70
2019-01-16T05:05:10.141Z,43.83
2019-01-16T05:07:41.882Z,39.42
2019-01-16T05:10:25.770Z,38.53
2019-01-16T05:13:14.008Z,37.35
2019-01-16T05:15:45.732Z,33.18
2019-01-16T05:18:22.912Z,27.45
2019-01-16T05:21:03.767Z,29.82
2019-01-16T05:23:44.737Z,30.43
2019-01-16T05:26:19.201Z,26.57
2019-01-16T05:28:59.954Z,30.17
2019-01-16T05:31:35.753Z,26.60
2019-01-16T05:34:20.050Z,33.83
2019-01-16T05:36:54.673Z,28.38
2019-01-16T05:39:35.651Z,25.97
2019-01-16T05:45:13.994Z,21.97
2019-01-16T05:47:45.737Z,27.10
2019-01-16T05:50:17.494Z,27.60
2019-01-16T05:52:49.219Z,24.87
2019-01-16T05:55:30.181Z,25.82
2019-01-16T05:58:10.824Z,23.62
2019-01-16T06:00:42.569Z,22.65
2019-01-16T06:03:23.401Z,27.82
2019-01-16T06:06:07.154Z,24.77
2019-01-16T06:08:44.823Z,24.18
2019-01-16T06:11:16.567Z,26.27
2019-01-16T06:13:51.245Z,26.50
2019-01-16T06:16:22.986Z,23.80
2019-01-16T06:19:10.929Z,23.30
2019-01-16T06:21:48.648Z,25.17
2019-01-16T06:24:26.380Z,27.05
2019-01-16T06:27:00.779Z,24.12
2019-01-16T06:29:38.531Z,27.98
2019-01-16T06:32:16.049Z,25.70
2019-01-16T06:35:04.036Z,27.25
2019-01-16T06:37:44.965Z,27.93
2019-01-16T06:40:19.657Z,47.08
2019-01-16T06:43:00.149Z,60.08
2019-01-16T06:45:43.857Z,47.08
2019-01-16T06:48:33.026Z,38.38
2019-01-16T06:51:04.782Z,36.63
2019-01-16T06:53:52.333Z,30.82
2019-01-16T06:56:24.074Z,28.70
2019-01-16T06:58:55.800Z,31.52
2019-01-16T07:01:33.260Z,31.10
2019-01-16T07:04:17.001Z,25.35
2019-01-16T07:07:03.901Z,30.25
2019-01-16T07:09:38.762Z,27.87
2019-01-16T07:12:19.734Z,29.80
2019-01-16T07:15:07.874Z,26.45
2019-01-16T07:17:45.534Z,25.40
2019-01-16T07:20:32.626Z,26.33
2019-01-16T07:23:10.333Z,26.60
2019-01-16T07:25:59.061Z,23.40
2019-01-16T07:28:30.798Z,24.67
2019-01-16T07:31:09.471Z,22.77
2019-01-16T07:33:41.195Z,25.70
2019-01-16T07:36:29.081Z,23.12
2019-01-16T07:39:10.042Z,23.90
2019-01-16T07:41:44.457Z,19.82
2019-01-16T07:44:25.325Z,21.02
2019-01-16T07:46:57.067Z,18.17
2019-01-16T07:49:44.064Z,20.12
2019-01-16T07:52:15.926Z,22.02
2019-01-16T07:55:03.700Z,19.20
2019-01-16T07:57:51.829Z,20.77
2019-01-16T08:00:26.621Z,17.77
2019-01-16T08:03:04.518Z,19.25
2019-01-16T08:05:39.137Z,20.37
2019-01-16T08:08:27.397Z,18.92
2019-01-16T08:11:01.786Z,18.37
2019-01-16T08:13:42.286Z,21.97
2019-01-16T08:16:14.037Z,17.50
2019-01-16T08:18:51.731Z,19.10
2019-01-16T08:21:39.789Z,31.25
2019-01-16T08:24:28.011Z,20.15
2019-01-16T08:27:02.734Z,20.23
2019-01-16T08:29:34.626Z,20.50
2019-01-16T08:32:06.350Z,17.45
2019-01-16T08:34:43.816Z,21.40
2019-01-16T08:37:15.725Z,25.85
2019-01-16T08:40:03.650Z,20.15
2019-01-16T08:42:35.446Z,16.75
2019-01-16T08:48:30.963Z,16.85
2019-01-16T08:51:02.762Z,15.95
2019-01-16T08:53:50.933Z,16.50
2019-01-16T08:56:39.233Z,14.40
2019-01-16T08:59:27.285Z,16.27
2019-01-16T09:02:15.022Z,15.23
2019-01-16T09:04:59.715Z,15.08
2019-01-16T09:07:31.555Z,16.23
2019-01-16T09:10:04.438Z,17.12
2019-01-16T09:12:48.318Z,15.15
2019-01-16T09:15:26.177Z,18.95
2019-01-16T09:17:58.077Z,13.98
2019-01-16T09:20:41.537Z,16.97
2019-01-16T09:23:23.228Z,12.45
2019-01-16T09:26:11.367Z,15.20
2019-01-16T09:28:59.296Z,13.15
2019-01-16T09:31:31.020Z,14.30
2019-01-16T09:34:08.201Z,11.25
2019-01-16T09:36:42.606Z,10.55
2019-01-16T09:39:14.349Z,11.75
2019-01-16T09:42:00.237Z,10.80
2019-01-16T09:45:00.577Z,11.03
2019-01-16T09:47:36.270Z,10.50
2019-01-16T09:50:29.220Z,28.65
2019-01-16T09:53:02.014Z,16.82
2019-01-16T09:55:50.182Z,10.10
2019-01-16T09:58:21.907Z,10.45
2019-01-16T10:00:59.782Z,10.72
2019-01-16T10:03:36.241Z,12.35
2019-01-16T10:06:07.958Z,11.15
2019-01-16T10:08:54.612Z,9.65
2019-01-16T10:11:29.361Z,7.62
2019-01-16T10:14:01.105Z,10.90
2019-01-16T10:16:35.777Z,10.60
2019-01-16T10:19:07.512Z,12.55
2019-01-16T10:21:41.888Z,13.93
2019-01-16T10:24:31.984Z,11.12
2019-01-16T10:27:09.315Z,9.70
2019-01-16T10:29:43.731Z,9.68
2019-01-16T10:32:15.458Z,10.40
2019-01-16T10:34:47.200Z,9.65
2019-01-16T10:37:35.248Z,11.12
2019-01-16T10:40:25.325Z,9.50
2019-01-16T10:43:13.200Z,7.67
2019-01-16T10:46:03.174Z,8.65
2019-01-16T10:48:51.020Z,9.50
2019-01-16T10:51:38.607Z,8.05
2019-01-16T10:54:26.459Z,10.60
2019-01-16T10:57:14.688Z,9.55
2019-01-16T10:59:55.392Z,7.83
2019-01-16T11:02:46.561Z,10.38
2019-01-16T11:05:33.715Z,8.90
2019-01-16T11:08:14.383Z,11.03
2019-01-16T11:10:54.984Z,8.23
2019-01-16T11:13:45.548Z,8.75
2019-01-16T11:16:29.480Z,7.50
2019-01-16T11:19:19.467Z,7.28
2019-01-16T11:21:51.235Z,9.15
2019-01-16T11:24:38.272Z,6.80
2019-01-16T11:27:25.183Z,9.30
2019-01-16T11:30:13.332Z,8.93
2019-01-16T11:33:01.494Z,7.80
2019-01-16T11:35:38.926Z,7.30
2019-01-16T11:38:19.633Z,6.15
2019-01-16T11:40:51.368Z,6.85
2019-01-16T11:43:39.098Z,7.35
2019-01-16T11:46:13.368Z,7.28
2019-01-16T11:48:45.091Z,7.70
2019-01-16T11:51:34.932Z,5.85
2019-01-16T11:54:06.655Z,7.08
2019-01-16T11:56:38.393Z,6.50
2019-01-16T11:59:12.955Z,6.15
2019-01-16T12:01:44.687Z,8.48
2019-01-16T12:04:16.416Z,6.25
2019-01-16T12:06:48.156Z,4.90
2019-01-16T12:09:19.870Z,6.83
2019-01-16T12:11:54.503Z,4.83
2019-01-16T12:14:28.872Z,6.80
2019-01-16T12:17:16.721Z,5.33
2019-01-16T12:19:51.095Z,5.80
2019-01-16T12:22:25.631Z,5.25
2019-01-16T12:24:57.992Z,10.82
2019-01-16T12:27:45.844Z,4.67
2019-01-16T12:30:21.183Z,5.15
2019-01-16T12:32:52.900Z,5.50
2019-01-16T12:35:27.615Z,7.65
2019-01-16T12:38:15.983Z,4.92
2019-01-16T12:40:47.801Z,4.67
2019-01-16T12:43:22.174Z,5.20
2019-01-16T12:45:53.915Z,5.75
2019-01-16T12:48:28.666Z,4.10
2019-01-16T12:51:17.174Z,4.50
2019-01-16T12:53:54.742Z,3.90
2019-01-16T12:56:29.261Z,3.70
2019-01-16T12:59:06.765Z,5.35
2019-01-16T13:01:44.814Z,4.58
2019-01-16T13:04:19.363Z,4.47
2019-01-16T13:07:09.159Z,4.28
2019-01-16T13:09:46.964Z,4.58
2019-01-16T13:12:18.711Z,6.40
2019-01-16T13:15:05.408Z,5.67
2019-01-16T13:17:55.487Z,5.95
2019-01-16T13:20:36.224Z,4.75
2019-01-16T13:23:24.157Z,4.12
2019-01-16T13:26:11.261Z,5.42
2019-01-16T13:28:42.959Z,5.55
2019-01-16T13:31:17.419Z,5.35
2019-01-16T13:33:49.264Z,5.42
2019-01-16T13:36:23.740Z,4.65
2019-01-16T13:39:01.399Z,5.58
2019-01-16T13:41:37.165Z,4.50
2019-01-16T13:44:14.939Z,6.42
2019-01-16T13:46:58.780Z,4.33
2019-01-16T13:49:58.895Z,4.67
2019-01-16T13:52:30.644Z,5.70
2019-01-16T13:55:02.364Z,4.30
2019-01-16T13:57:34.111Z,5.40
2019-01-16T14:00:08.535Z,5.50
2019-01-16T14:02:46.095Z,4.72
2019-01-16T14:05:17.823Z,5.47
2019-01-16T14:07:49.559Z,4.50
2019-01-16T14:10:21.301Z,4.33
2019-01-16T14:13:12.119Z,4.50
2019-01-16T14:15:43.843Z,3.65
2019-01-16T14:18:15.965Z,4.20
2019-01-16T14:20:50.366Z,5.67
2019-01-16T14:23:28.255Z,4.42
2019-01-16T14:26:16.212Z,4.05
2019-01-16T14:28:59.979Z,6.30
2019-01-16T14:31:48.101Z,4.53
2019-01-16T14:34:27.028Z,4.87
2019-01-16T14:37:01.707Z,3.75
2019-01-16T14:39:39.624Z,4.37
2019-01-16T14:42:14.243Z,4.37
2019-01-16T14:44:48.715Z,5.45
2019-01-16T14:47:23.117Z,6.08
2019-01-16T14:50:03.985Z,7.22
2019-01-16T14:52:41.612Z,5.03
2019-01-16T14:55:16.447Z,4.58
2019-01-16T14:57:48.189Z,4.62
2019-01-16T15:00:22.840Z,4.75
2019-01-16T15:02:57.019Z,4.80
2019-01-16T15:05:37.494Z,6.25
2019-01-16T15:08:09.191Z,4.58
2019-01-16T15:10:43.639Z,6.12
2019-01-16T15:13:21.059Z,7.83
2019-01-16T15:16:01.518Z,4.90
2019-01-16T15:18:33.455Z,5.62
2019-01-16T15:21:05.251Z,5.33
2019-01-16T15:23:36.988Z,5.22
2019-01-16T15:26:11.968Z,6.95
2019-01-16T15:28:43.795Z,4.50
2019-01-16T15:31:21.713Z,6.67
2019-01-16T15:34:05.421Z,6.28
2019-01-16T15:36:55.704Z,11.50
2019-01-16T15:39:42.727Z,7.03
2019-01-16T15:42:14.438Z,6.03
2019-01-16T15:44:46.186Z,6.70
2019-01-16T15:47:29.962Z,10.38
2019-01-16T15:50:01.958Z,5.85
2019-01-16T15:52:50.091Z,6.85
2019-01-16T15:55:24.868Z,5.35
2019-01-16T15:58:05.569Z,8.23
2019-01-16T16:00:55.653Z,8.53
2019-01-16T16:03:43.723Z,5.80
2019-01-16T16:06:34.143Z,7.08
2019-01-16T16:09:12.618Z,6.25
2019-01-16T16:11:50.241Z,6.83
2019-01-16T16:14:31.282Z,6.55
2019-01-16T16:17:19.499Z,7.97
2019-01-16T16:20:00.228Z,6.53
2019-01-16T16:22:31.908Z,8.00
2019-01-16T16:25:06.513Z,8.30
2019-01-16T16:27:41.439Z,6.22
2019-01-16T16:30:15.536Z,8.03
2019-01-16T16:32:53.327Z,7.10
2019-01-16T16:35:25.067Z,7.92
2019-01-16T16:38:05.613Z,7.17
2019-01-16T16:40:52.425Z,8.20
2019-01-16T16:43:32.966Z,6.75
2019-01-16T16:46:23.337Z,6.40
2019-01-16T16:48:58.011Z,8.08
2019-01-16T16:51:38.774Z,7.05
2019-01-16T16:54:10.483Z,6.10
2019-01-16T16:56:58.412Z,8.18
2019-01-16T16:59:36.683Z,8.23
2019-01-16T17:02:17.203Z,12.88
2019-01-16T17:05:05.275Z,11.93
2019-01-16T17:07:42.452Z,10.00
2019-01-16T17:10:17.513Z,7.95
2019-01-16T17:13:04.303Z,12.13
2019-01-16T17:15:41.917Z,12.43
2019-01-16T17:18:22.410Z,9.35
2019-01-16T17:20:56.801Z,10.70
2019-01-16T17:23:44.766Z,12.85
2019-01-16T17:26:32.721Z,9.13
2019-01-16T17:29:19.797Z,10.18
2019-01-16T17:32:00.743Z,11.20
2019-01-16T17:34:38.636Z,10.40
2019-01-16T17:37:13.559Z,7.67
2019-01-16T17:39:54.482Z,16.05
2019-01-16T17:42:29.156Z,9.50
2019-01-16T17:45:15.832Z,12.73
2019-01-16T17:47:50.162Z,9.15
2019-01-16T17:50:31.093Z,11.20
2019-01-16T17:53:02.833Z,11.75
2019-01-16T17:55:39.994Z,8.93
2019-01-16T17:58:29.967Z,10.15
2019-01-16T18:01:07.711Z,9.35
2019-01-16T18:03:45.115Z,9.65
2019-01-16T18:06:19.563Z,11.00
2019-01-16T18:09:06.343Z,12.10
2019-01-16T18:11:53.355Z,11.15
2019-01-16T18:14:25.071Z,11.85
2019-01-16T18:16:59.506Z,8.50
2019-01-16T18:19:31.233Z,10.25
2019-01-16T18:22:11.766Z,11.38
2019-01-16T18:24:52.380Z,10.93
2019-01-16T18:27:24.160Z,12.15
2019-01-16T18:29:55.886Z,11.65
2019-01-16T18:32:43.546Z,8.15
2019-01-16T18:35:30.339Z,10.55
2019-01-16T18:38:07.561Z,12.18
2019-01-16T18:40:43.711Z,9.53
2019-01-16T18:43:21.311Z,11.03
2019-01-16T18:46:02.248Z,13.58
2019-01-16T18:48:33.963Z,10.85
2019-01-16T18:51:17.733Z,11.83
2019-01-16T18:53:52.097Z,10.85
2019-01-16T18:59:13.499Z,12.45
2019-01-16T19:01:48.009Z,11.25
2019-01-16T19:04:37.823Z,11.95
2019-01-16T19:07:18.177Z,11.93
2019-01-16T19:09:55.826Z,11.55
2019-01-16T19:12:30.522Z,10.85
2019-01-16T19:15:08.207Z,16.23
2019-01-16T19:17:46.876Z,12.78
2019-01-16T19:20:30.693Z,12.53
2019-01-16T19:23:08.660Z,11.35
2019-01-16T19:25:46.332Z,15.43
2019-01-16T19:28:18.182Z,10.58
2019-01-16T19:31:01.964Z,14.50
2019-01-16T19:33:33.691Z,11.15
2019-01-16T19:36:05.451Z,13.58
2019-01-16T19:38:55.714Z,15.23
2019-01-16T19:41:27.464Z,10.95
2019-01-16T19:44:05.187Z,13.45
2019-01-16T19:46:53.431Z,13.48
2019-01-16T19:49:34.257Z,13.93
2019-01-16T19:52:08.723Z,15.85
2019-01-16T19:54:43.397Z,11.33
2019-01-16T19:57:20.900Z,15.10
2019-01-16T20:00:10.700Z,12.90
2019-01-16T20:02:42.452Z,17.00
2019-01-16T20:05:25.968Z,12.93
2019-01-16T20:08:00.617Z,12.82
2019-01-16T20:10:41.396Z,17.02
2019-01-16T20:13:13.131Z,14.43
2019-01-16T20:16:00.343Z,16.23
2019-01-16T20:18:38.053Z,15.10
2019-01-16T20:21:09.769Z,15.48
2019-01-16T20:23:41.520Z,13.03
2019-01-16T20:26:28.298Z,12.35
2019-01-16T20:29:12.283Z,13.58
2019-01-16T20:31:46.932Z,12.40
2019-01-16T20:34:21.437Z,12.53
2019-01-16T20:37:05.379Z,11.57
2019-01-16T20:39:40.004Z,15.00
2019-01-16T20:42:23.572Z,16.20
2019-01-16T20:44:55.421Z,16.02
2019-01-16T20:47:30.108Z,13.58
2019-01-16T20:50:17.551Z,12.45
2019-01-16T20:53:04.319Z,14.80
2019-01-16T20:55:45.925Z,12.13
2019-01-16T20:58:17.882Z,16.35
2019-01-16T21:00:58.520Z,14.65
2019-01-16T21:03:30.261Z,14.78
2019-01-16T21:06:14.074Z,12.47
2019-01-16T21:08:45.781Z,13.98
2019-01-16T21:11:27.637Z,14.35
2019-01-16T21:14:16.328Z,16.12
2019-01-16T21:16:48.120Z,11.00
2019-01-16T21:19:22.808Z,13.98
2019-01-16T21:21:54.531Z,18.67
2019-01-16T21:24:41.753Z,13.05
2019-01-16T21:27:25.454Z,13.70
2019-01-16T21:30:01.489Z,16.30
2019-01-16T21:32:33.242Z,19.32
2019-01-16T21:35:20.552Z,19.25
2019-01-16T21:37:55.240Z,18.40
2019-01-16T21:40:45.360Z,23.85
2019-01-16T21:43:26.263Z,21.65
2019-01-16T21:46:01.166Z,21.33
2019-01-16T21:48:32.916Z,16.70
2019-01-16T21:51:13.609Z,21.77
2019-01-16T21:54:02.905Z,20.43
2019-01-16T21:56:49.697Z,19.98
2019-01-16T21:59:30.381Z,23.15
2019-01-16T22:02:02.104Z,20.72
2019-01-16T22:04:33.854Z,17.77
2019-01-16T22:07:11.537Z,16.70
2019-01-16T22:09:49.300Z,16.87
2019-01-16T22:12:26.731Z,19.57
2019-01-16T22:15:11.467Z,20.77
2019-01-16T22:17:43.249Z,20.12
2019-01-16T22:20:26.973Z,19.67
2019-01-16T22:23:04.471Z,16.73
2019-01-16T22:25:42.128Z,18.95
2019-01-16T22:28:20.209Z,20.37
2019-01-16T22:30:54.620Z,17.82
2019-01-16T22:33:41.668Z,21.37
2019-01-16T22:36:16.150Z,18.00
2019-01-16T22:38:51.136Z,16.57
2019-01-16T22:41:31.869Z,18.40
2019-01-16T22:44:20.126Z,18.10
2019-01-16T22:47:01.409Z,17.77
2019-01-16T22:49:38.836Z,19.77
2019-01-16T22:52:22.795Z,16.40
2019-01-16T22:55:00.473Z,18.27
2019-01-16T22:57:48.764Z,20.35
2019-01-16T23:00:44.399Z,19.02
2019-01-16T23:03:19.264Z,14.98
2019-01-16T23:05:57.250Z,19.85
2019-01-16T23:08:35.669Z,24.65
2019-01-16T23:11:07.408Z,17.87
2019-01-16T23:13:40.193Z,14.85
2019-01-16T23:16:23.977Z,18.10
2019-01-16T23:19:04.697Z,17.25
2019-01-16T23:21:39.355Z,20.23
2019-01-16T23:24:11.097Z,19.02
2019-01-16T23:26:48.787Z,16.57
2019-01-16T23:29:20.549Z,16.37
2019-01-16T23:31:54.895Z,20.65
2019-01-16T23:34:51.383Z,19.62
2019-01-16T23:37:26.224Z,20.25
2019-01-16T23:39:57.964Z,15.58
2019-01-16T23:42:32.603Z,17.62
2019-01-16T23:45:16.567Z,16.10
2019-01-16T23:48:00.610Z,15.58
2019-01-16T23:50:38.005Z,16.15
2019-01-16T23:53:18.877Z,16.77
2019-01-16T23:59:06.003Z,15.20
